createdAt,value
2018-09-08T17:29:38.868Z,21.15
2018-09-08T17:30:38.786Z,21.18
2018-09-08T17:32:33.733Z,21.15
2018-09-08T17:33:33.153Z,21.00
2018-09-08T17:35:27.595Z,21.00
2018-09-08T17:36:27.530Z,20.87
2018-09-08T17:38:21.920Z,20.88
2018-09-08T17:39:21.896Z,20.88
2018-09-08T17:41:16.352Z,20.77
2018-09-08T17:42:16.263Z,20.75
2018-09-08T17:44:10.650Z,20.69
2018-09-08T17:45:10.655Z,20.67
2018-09-08T17:47:05.248Z,20.59
2018-09-08T17:48:05.019Z,20.56
2018-09-08T17:49:59.393Z,20.47
2018-09-08T17:50:59.390Z,20.40
2018-09-08T17:52:53.780Z,20.32
2018-09-08T17:53:53.780Z,20.21
2018-09-08T17:55:48.147Z,20.18
2018-09-08T17:56:48.147Z,20.21
2018-09-08T17:58:42.574Z,20.11
2018-09-08T17:59:42.528Z,20.09
2018-09-08T18:01:36.909Z,19.99
2018-09-08T18:02:36.903Z,19.96
2018-09-08T18:04:31.394Z,19.84
2018-09-08T18:05:31.280Z,19.88
2018-09-08T18:07:25.658Z,19.85
2018-09-08T18:08:25.657Z,19.81
2018-09-08T18:10:20.036Z,19.67
2018-09-08T18:11:20.033Z,19.73
2018-09-08T18:13:14.414Z,19.69
2018-09-08T18:14:14.429Z,19.63
2018-09-08T18:16:08.780Z,19.58
2018-09-08T18:17:08.811Z,19.58
2018-09-08T18:19:03.151Z,19.59
2018-09-08T18:20:03.149Z,19.47
2018-09-08T18:21:57.734Z,19.44
2018-09-08T18:22:57.597Z,19.40
2018-09-08T18:24:51.921Z,19.33
2018-09-08T18:25:51.919Z,19.34
2018-09-08T18:27:46.313Z,19.26
2018-09-08T18:28:46.311Z,19.22
2018-09-08T18:30:40.689Z,19.24
2018-09-08T18:31:40.687Z,19.22
2018-09-08T18:33:35.071Z,19.12
2018-09-08T18:34:35.067Z,19.12
2018-09-08T18:36:29.444Z,19.12
2018-09-08T18:37:29.442Z,19.08
2018-09-08T18:39:23.964Z,19.00
2018-09-08T18:40:23.823Z,18.95
2018-09-08T18:42:18.184Z,18.98
2018-09-08T18:43:18.262Z,18.92
2018-09-08T18:45:12.571Z,18.83
2018-09-08T18:46:12.558Z,18.77
2018-09-08T18:48:07.001Z,18.74
2018-09-08T18:49:06.956Z,18.81
2018-09-08T18:51:01.338Z,18.71
2018-09-08T18:52:01.336Z,18.73
2018-09-08T18:53:55.725Z,18.73
2018-09-08T18:54:55.717Z,18.59
2018-09-08T18:56:50.226Z,18.56
2018-09-08T18:57:50.091Z,18.59
2018-09-08T18:59:43.496Z,18.56
2018-09-08T19:00:43.479Z,18.50
2018-09-08T19:02:37.864Z,18.47
2018-09-08T19:03:37.863Z,18.45
2018-09-08T19:05:32.241Z,18.40
2018-09-08T19:06:32.244Z,18.37
2018-09-08T19:08:26.626Z,18.38
2018-09-08T19:09:26.621Z,18.35
2018-09-08T19:11:21.010Z,18.35
2018-09-08T19:12:21.008Z,18.41
2018-09-08T19:14:15.521Z,18.29
2018-09-08T19:15:15.389Z,18.37
2018-09-08T19:17:09.840Z,18.23
2018-09-08T19:18:09.758Z,18.29
2018-09-08T19:20:04.173Z,18.26
2018-09-08T19:21:04.140Z,18.25
2018-09-08T19:22:58.514Z,18.25
2018-09-08T19:23:58.511Z,18.22
2018-09-08T19:25:52.915Z,18.23
2018-09-08T19:26:52.877Z,18.08
2018-09-08T19:28:47.240Z,18.15
2018-09-08T19:29:47.240Z,18.04
2018-09-08T19:31:41.985Z,18.11
2018-09-08T19:32:41.621Z,17.98
2018-09-08T19:34:36.022Z,17.98
2018-09-08T19:35:35.995Z,17.92
2018-09-08T19:37:31.527Z,17.97
2018-09-08T19:38:31.235Z,17.92
2018-09-08T19:40:25.696Z,17.94
2018-09-08T19:41:25.677Z,17.92
2018-09-08T19:43:21.129Z,17.89
2018-09-08T19:44:20.937Z,17.86
2018-09-08T19:46:15.310Z,17.80
2018-09-08T19:47:15.314Z,17.78
2018-09-08T19:49:09.827Z,17.71
2018-09-08T19:50:09.713Z,17.83
2018-09-08T19:52:04.129Z,17.79
2018-09-08T19:53:04.199Z,17.82
2018-09-08T19:54:58.523Z,17.67
2018-09-08T19:55:58.502Z,17.70
2018-09-08T19:57:52.880Z,17.59
2018-09-08T19:58:52.877Z,17.57
2018-09-08T20:00:47.251Z,17.45
2018-09-08T20:01:47.256Z,17.52
2018-09-08T20:03:45.757Z,17.57
2018-09-08T20:04:45.755Z,17.54
2018-09-08T20:06:40.272Z,17.51
2018-09-08T20:07:40.134Z,17.65
2018-09-08T20:09:36.542Z,17.56
2018-09-08T20:10:36.496Z,17.56
2018-09-08T20:11:36.498Z,17.49
2018-09-08T20:12:36.505Z,17.51
2018-09-08T20:13:36.552Z,17.59
2018-09-08T20:14:36.495Z,17.48
2018-09-08T20:15:36.501Z,17.51
2018-09-08T20:16:36.502Z,17.49
2018-09-08T20:17:36.501Z,17.56
2018-09-08T20:18:36.496Z,17.56
2018-09-08T20:19:36.596Z,17.49
2018-09-08T20:20:36.498Z,17.57
2018-09-08T20:21:36.501Z,17.56
2018-09-08T20:22:36.497Z,17.56
2018-09-08T20:23:36.504Z,17.51
2018-09-08T20:24:36.507Z,17.48
2018-09-08T20:25:36.497Z,17.54
2018-09-08T20:26:36.561Z,17.38
2018-09-08T20:27:36.496Z,17.34
2018-09-08T20:28:36.497Z,17.41
2018-09-08T20:29:36.497Z,17.41
2018-09-08T20:30:36.495Z,17.39
2018-09-08T20:31:36.497Z,17.41
2018-09-08T20:32:36.497Z,17.38
2018-09-08T20:33:36.494Z,17.34
2018-09-08T20:34:36.498Z,17.34
2018-09-08T20:35:36.495Z,17.30
2018-09-08T20:36:36.495Z,17.24
2018-09-08T20:37:36.497Z,17.26
2018-09-08T20:38:36.497Z,17.29
2018-09-08T20:39:36.494Z,17.29
2018-09-08T20:40:36.507Z,17.22
2018-09-08T20:41:36.507Z,17.16
2018-09-08T20:42:36.582Z,17.20
2018-09-08T20:43:36.494Z,17.23
2018-09-08T20:44:36.494Z,17.19
2018-09-08T20:45:36.494Z,17.14
2018-09-08T20:46:36.496Z,17.06
2018-09-08T20:47:36.502Z,17.19
2018-09-08T20:48:36.519Z,17.12
2018-09-08T20:49:36.492Z,17.14
2018-09-08T20:50:36.495Z,17.06
2018-09-08T20:51:36.516Z,16.99
2018-09-08T20:52:36.496Z,16.97
2018-09-08T20:53:36.492Z,16.99
2018-09-08T20:54:36.490Z,17.01
2018-09-08T20:55:36.520Z,17.02
2018-09-08T20:56:36.493Z,16.96
2018-09-08T20:57:36.494Z,16.89
2018-09-08T20:58:36.507Z,16.89
2018-09-08T20:59:36.491Z,16.94
2018-09-08T21:00:36.494Z,16.91
2018-09-08T21:01:36.491Z,16.90
2018-09-08T21:02:36.555Z,16.96
2018-09-08T21:03:36.489Z,16.87
2018-09-08T21:04:36.493Z,16.90
2018-09-08T21:05:36.488Z,16.89
2018-09-08T21:06:36.487Z,16.91
2018-09-08T21:07:36.536Z,16.91
2018-09-08T21:08:36.490Z,16.89
2018-09-08T21:09:36.489Z,16.83
2018-09-08T21:10:36.488Z,16.86
2018-09-08T21:11:36.487Z,16.84
2018-09-08T21:12:36.486Z,16.71
2018-09-08T21:13:36.508Z,16.75
2018-09-08T21:14:36.487Z,16.78
2018-09-08T21:15:36.488Z,16.78
2018-09-08T21:16:36.487Z,16.69
2018-09-08T21:17:36.482Z,16.68
2018-09-08T21:18:36.497Z,16.66
2018-09-08T21:19:36.538Z,16.66
2018-09-08T21:20:36.481Z,16.66
2018-09-08T21:21:36.490Z,16.68
2018-09-08T21:22:36.492Z,16.68
2018-09-08T21:23:36.483Z,16.61
2018-09-08T21:24:36.493Z,16.56
2018-09-08T21:25:36.480Z,16.65
2018-09-08T21:26:36.481Z,16.58
2018-09-08T21:27:36.532Z,16.54
2018-09-08T21:28:36.507Z,16.58
2018-09-08T21:29:36.483Z,16.53
2018-09-08T21:30:36.489Z,16.51
2018-09-08T21:31:36.502Z,16.49
2018-09-08T21:32:36.479Z,16.47
2018-09-08T21:33:36.482Z,16.49
2018-09-08T21:34:36.476Z,16.43
2018-09-08T21:35:36.476Z,16.49
2018-09-08T21:36:36.474Z,16.38
2018-09-08T21:37:36.473Z,16.47
2018-09-08T21:38:36.472Z,16.33
2018-09-08T21:39:36.473Z,16.38
2018-09-08T21:40:36.472Z,16.33
2018-09-08T21:41:36.480Z,16.39
2018-09-08T21:42:36.470Z,16.31
2018-09-08T21:43:36.472Z,16.33
2018-09-08T21:44:36.468Z,16.32
2018-09-08T21:45:36.477Z,16.23
2018-09-08T21:46:36.468Z,16.21
2018-09-08T21:47:36.469Z,16.17
2018-09-08T21:48:36.465Z,16.23
2018-09-08T21:49:36.466Z,16.12
2018-09-08T21:50:36.467Z,16.12
2018-09-08T21:51:36.466Z,16.12
2018-09-08T21:52:36.466Z,16.09
2018-09-08T21:53:36.461Z,16.04
2018-09-08T21:54:36.460Z,16.10
2018-09-08T21:55:36.464Z,16.04
2018-09-08T21:56:36.463Z,16.02
2018-09-08T21:57:36.458Z,15.94
2018-09-08T21:58:36.460Z,15.95
2018-09-08T21:59:36.457Z,15.91
2018-09-08T22:00:36.455Z,15.91
2018-09-08T22:01:36.457Z,15.90
2018-09-08T22:02:36.461Z,15.91
2018-09-08T22:03:36.460Z,15.92
2018-09-08T22:04:36.464Z,15.92
2018-09-08T22:05:36.451Z,15.97
2018-09-08T22:06:36.449Z,15.98
2018-09-08T22:07:36.449Z,15.97
2018-09-08T22:08:36.451Z,15.98
2018-09-08T22:09:36.450Z,15.98
2018-09-08T22:10:36.448Z,15.94
2018-09-08T22:11:36.466Z,15.92
2018-09-08T22:12:36.444Z,15.91
2018-09-08T22:13:36.443Z,15.84
2018-09-08T22:14:36.443Z,15.92
2018-09-08T22:15:36.446Z,15.90
2018-09-08T22:16:36.442Z,15.82
2018-09-08T22:17:36.440Z,15.83
2018-09-08T22:18:36.439Z,15.88
2018-09-08T22:19:36.440Z,15.90
2018-09-08T22:20:36.451Z,15.84
2018-09-08T22:21:36.435Z,15.80
2018-09-08T22:22:36.435Z,15.86
2018-09-08T22:23:36.436Z,15.92
2018-09-08T22:24:36.433Z,15.86
2018-09-08T22:25:36.431Z,15.90
2018-09-08T22:26:36.430Z,15.86
2018-09-08T22:27:39.457Z,15.84
2018-09-08T22:28:36.550Z,15.80
2018-09-08T22:29:37.045Z,15.82
2018-09-08T22:30:36.509Z,15.77
2018-09-08T22:31:36.436Z,15.90
2018-09-08T22:32:36.428Z,15.90
2018-09-08T22:33:36.440Z,15.88
2018-09-08T22:34:36.430Z,15.84
2018-09-08T22:35:36.424Z,15.80
2018-09-08T22:36:36.439Z,15.77
2018-09-08T22:37:36.423Z,15.75
2018-09-08T22:38:36.421Z,15.84
2018-09-08T22:39:36.418Z,15.82
2018-09-08T22:40:36.422Z,15.77
2018-09-08T22:41:36.419Z,15.77
2018-09-08T22:42:36.418Z,15.70
2018-09-08T22:43:36.414Z,15.80
2018-09-08T22:44:36.412Z,15.82
2018-09-08T22:45:36.413Z,15.82
2018-09-08T22:46:36.413Z,15.76
2018-09-08T22:47:36.412Z,15.67
2018-09-08T22:48:36.410Z,15.77
2018-09-08T22:49:36.408Z,15.72
2018-09-08T22:50:36.410Z,15.76
2018-09-08T22:51:36.406Z,15.72
2018-09-08T22:52:36.408Z,15.79
2018-09-08T22:53:36.406Z,15.79
2018-09-08T22:54:36.403Z,15.70
2018-09-08T22:55:36.408Z,15.73
2018-09-08T22:56:36.403Z,15.76
2018-09-08T22:57:36.399Z,15.70
2018-09-08T22:58:36.400Z,15.68
2018-09-08T22:59:36.409Z,15.72
2018-09-08T23:00:36.397Z,15.79
2018-09-08T23:01:36.396Z,15.70
2018-09-08T23:02:36.394Z,15.64
2018-09-08T23:03:36.398Z,15.67
2018-09-08T23:04:36.396Z,15.70
2018-09-08T23:05:36.400Z,15.73
2018-09-08T23:06:36.391Z,15.68
2018-09-08T23:07:36.391Z,15.64
2018-09-08T23:08:36.387Z,15.70
2018-09-08T23:09:36.390Z,15.75
2018-09-08T23:10:36.405Z,15.70
2018-09-08T23:11:36.382Z,15.72
2018-09-08T23:12:36.490Z,15.65
2018-09-08T23:13:36.417Z,15.70
2018-09-08T23:14:36.383Z,15.68
2018-09-08T23:15:36.382Z,15.64
2018-09-08T23:16:36.392Z,15.61
2018-09-08T23:17:36.377Z,15.75
2018-09-08T23:18:36.376Z,15.70
2018-09-08T23:19:36.381Z,15.77
2018-09-08T23:20:36.375Z,15.77
2018-09-08T23:21:36.375Z,15.75
2018-09-08T23:22:36.370Z,15.76
2018-09-08T23:23:36.371Z,15.80
2018-09-08T23:24:36.378Z,15.79
2018-09-08T23:25:36.373Z,15.77
2018-09-08T23:26:36.365Z,15.68
2018-09-08T23:27:36.365Z,15.76
2018-09-08T23:28:36.364Z,15.84
2018-09-08T23:29:36.364Z,15.83
2018-09-08T23:30:36.367Z,15.72
2018-09-08T23:31:36.361Z,15.73
2018-09-08T23:32:36.361Z,15.82
2018-09-08T23:33:36.359Z,15.72
2018-09-08T23:34:36.365Z,15.80
2018-09-08T23:35:36.389Z,15.86
2018-09-08T23:36:36.357Z,15.76
2018-09-08T23:37:36.358Z,15.80
2018-09-08T23:38:36.354Z,15.75
2018-09-08T23:39:36.354Z,15.70
2018-09-08T23:40:36.352Z,15.73
2018-09-08T23:41:36.349Z,15.72
2018-09-08T23:42:36.357Z,15.79
2018-09-08T23:43:36.349Z,15.80
2018-09-08T23:44:36.353Z,15.75
2018-09-08T23:45:36.347Z,15.75
2018-09-08T23:46:36.346Z,15.75
2018-09-08T23:47:36.345Z,15.77
2018-09-08T23:48:36.344Z,15.64
2018-09-08T23:49:36.347Z,15.68
2018-09-08T23:50:36.408Z,15.73
2018-09-08T23:51:36.339Z,15.72
2018-09-08T23:52:36.404Z,15.80
2018-09-08T23:53:36.335Z,15.80
2018-09-08T23:54:36.342Z,15.82
2018-09-08T23:55:36.336Z,15.72
2018-09-08T23:56:36.335Z,15.76
2018-09-08T23:57:36.331Z,15.79
2018-09-08T23:58:36.342Z,15.76
2018-09-08T23:59:36.332Z,15.76
